Time;durP1;ratioP1;P1;durP2;ratioP2;P2;SDS_P1;SDS_P2;PMS_P1;PMS_P2;Temp;Humidity;BMP_temperature;BMP_pressure;BME280_temperature;BME280_humidity;BME280_pressure;Samples;Min_cycle;Max_cycle;Signal;HPM_P1;HPM_P2
2022/03/29 00:01:05;;;;;;;;;37.00;31.25;;;;;17.10;35.78;100719.19;5102898;27;47194;-77
2022/03/29 00:03:31;;;;;;;;;39.25;30.25;;;;;16.99;36.47;100705.22;5103192;27;45464;-76
2022/03/29 00:05:56;;;;;;;;;39.25;29.75;;;;;17.04;36.24;100715.78;5100101;27;45883;-75
2022/03/29 00:08:22;;;;;;;;;34.50;31.25;;;;;16.87;35.89;100689.50;5108263;27;45232;-77
2022/03/29 00:10:47;;;;;;;;;33.00;30.50;;;;;17.01;36.29;100708.72;5121392;27;45443;-77
2022/03/29 00:13:13;;;;;;;;;37.25;32.25;;;;;17.01;36.12;100700.72;5121311;27;45258;-77
2022/03/29 00:15:38;;;;;;;;;33.00;31.50;;;;;16.99;36.35;100696.34;5117728;27;45331;-76
2022/03/29 00:18:04;;;;;;;;;35.75;32.25;;;;;17.01;36.58;100692.75;5121410;27;45292;-76
2022/03/29 00:20:30;;;;;;;;;34.25;31.00;;;;;16.91;36.55;100669.88;5110199;27;46389;-76
2022/03/29 00:22:55;;;;;;;;;29.75;26.00;;;;;16.98;36.31;100683.94;5102820;27;45219;-76
2022/03/29 00:28:43;;;;;;;;;31.50;30.00;;;;;16.98;36.45;100676.84;5116180;27;45236;-76
2022/03/29 00:31:10;;;;;;;;;1.75;0.00;;;;;16.92;36.23;100670.75;5101110;27;46853;-77
2022/03/29 00:33:35;;;;;;;;;39.00;31.75;;;;;16.98;36.23;100675.97;5086876;27;45502;-77
2022/03/29 00:36:01;;;;;;;;;33.75;29.75;;;;;16.98;36.43;100674.19;5100000;27;45292;-76
2022/03/29 00:38:26;;;;;;;;;32.00;29.50;;;;;16.90;36.24;100657.50;5100287;27;45421;-76
2022/03/29 00:40:53;;;;;;;;;41.25;35.00;;;;;16.91;36.20;100659.25;5097819;27;45375;-76
2022/03/29 00:43:18;;;;;;;;;34.25;31.50;;;;;16.86;36.48;100647.81;5115111;27;45411;-74
2022/03/29 00:45:45;;;;;;;;;40.50;31.25;;;;;16.87;36.89;100648.69;5120581;27;45419;-75
2022/03/29 00:48:12;;;;;;;;;37.00;33.25;;;;;16.88;36.53;100648.66;5120583;27;45406;-77
2022/03/29 00:50:38;;;;;;;;;39.00;35.75;;;;;16.85;36.73;100634.56;5114289;27;46080;-76
2022/03/29 00:53:04;;;;;;;;;34.75;32.50;;;;;16.83;37.08;100628.38;5109290;27;45256;-76
2022/03/29 00:55:31;;;;;;;;;35.00;33.50;;;;;16.73;36.86;100614.38;5120616;27;45285;-76
2022/03/29 00:57:58;;;;;;;;;42.50;34.50;;;;;16.77;36.88;100624.06;5120597;27;45162;-76
2022/03/29 01:00:24;;;;;;;;;33.50;32.00;;;;;16.76;36.61;100628.50;5120126;27;46595;-75
2022/03/29 01:02:49;;;;;;;;;32.50;29.00;;;;;16.68;36.86;100606.50;5100968;27;45300;-76
2022/03/29 01:05:15;;;;;;;;;31.25;28.50;;;;;16.68;36.68;100606.50;5099769;27;45380;-77
2022/03/29 01:07:41;;;;;;;;;35.00;31.00;;;;;16.74;37.01;100609.00;5099528;27;45476;-76
2022/03/29 01:10:07;;;;;;;;;34.75;31.75;;;;;16.73;36.74;100609.94;5099481;27;45348;-77
2022/03/29 01:12:34;;;;;;;;;37.00;31.75;;;;;16.71;36.47;100603.75;5098161;27;45217;-74
2022/03/29 01:15:04;;;;;;;;;35.25;30.75;;;;;16.66;36.93;100599.41;5080244;27;45292;-76
2022/03/29 01:17:39;;;;;;;;;33.75;28.50;;;;;16.59;37.13;100589.81;5085476;27;45466;-76
2022/03/29 01:20:22;;;;;;;;;32.25;31.50;;;;;16.67;36.48;100603.84;5099541;27;46337;-76
2022/03/29 01:22:49;;;;;;;;;38.00;34.00;;;;;16.65;36.91;100602.97;5098385;27;45313;-77
2022/03/29 01:25:20;;;;;;;;;40.00;34.50;;;;;16.60;37.27;100600.41;5098683;27;47007;-77
2022/03/29 01:27:51;;;;;;;;;45.50;34.00;;;;;16.56;37.52;100589.84;5099550;27;45144;-77
2022/03/29 01:30:18;;;;;;;;;40.25;32.75;;;;;16.54;37.85;100590.75;5099114;27;45733;-76
2022/03/29 01:32:49;;;;;;;;;47.75;39.75;;;;;16.53;37.86;100594.31;5097610;27;45481;-76
2022/03/29 01:35:20;;;;;;;;;53.50;42.25;;;;;16.48;38.20;100584.72;5097805;27;45440;-76
2022/03/29 01:37:46;;;;;;;;;56.00;46.75;;;;;16.48;38.23;100590.91;5099455;27;45464;-77
2022/03/29 01:40:16;;;;;;;;;54.25;43.25;;;;;16.46;38.28;100574.06;5099250;27;47440;-77
2022/03/29 01:42:49;;;;;;;;;52.50;43.25;;;;;16.40;38.50;100566.25;5098205;27;45279;-76
2022/03/29 01:45:16;;;;;;;;;52.75;42.25;;;;;16.41;39.02;100564.44;5098657;27;45478;-76
2022/03/29 01:47:42;;;;;;;;;54.50;43.25;;;;;16.39;38.69;100564.50;5080773;27;45501;-76
2022/03/29 01:50:09;;;;;;;;;50.75;42.25;;;;;16.31;38.66;100554.91;5102520;27;47049;-77
2022/03/29 01:52:45;;;;;;;;;52.50;40.75;;;;;16.37;38.43;100562.75;5099928;27;45282;-77
2022/03/29 01:55:12;;;;;;;;;50.00;40.00;;;;;16.29;38.59;100554.94;5115890;27;45500;-75
2022/03/29 01:57:38;;;;;;;;;50.50;38.50;;;;;16.30;38.98;100564.66;5119168;27;45521;-76
2022/03/29 02:02:49;;;;;;;;;47.75;39.75;;;;;16.23;39.09;100560.34;5119204;27;45262;-76
2022/03/29 02:05:15;;;;;;;;;39.50;33.75;;;;;16.16;39.13;100550.75;5117415;27;45296;-77
2022/03/29 02:07:40;;;;;;;;;44.25;36.25;;;;;16.19;38.92;100551.56;5119276;27;45474;-76
2022/03/29 02:10:07;;;;;;;;;46.25;38.00;;;;;16.16;39.50;100545.41;5139705;27;46082;-74
2022/03/29 02:12:33;;;;;;;;;38.25;34.75;;;;;16.14;39.15;100547.25;5138425;27;45238;-76
2022/03/29 02:14:59;;;;;;;;;35.50;34.00;;;;;16.07;39.03;100538.50;5125872;27;45412;-76
2022/03/29 02:17:25;;;;;;;;;49.50;37.00;;;;;16.11;39.42;100537.56;5109697;27;45467;-75
2022/03/29 02:19:50;;;;;;;;;40.00;35.50;;;;;16.09;39.55;100522.50;5118197;27;45641;-76
2022/03/29 02:22:16;;;;;;;;;32.50;31.75;;;;;16.08;39.42;100532.28;5119155;27;45298;-76
2022/03/29 02:24:42;;;;;;;;;40.75;35.25;;;;;16.08;39.05;100524.28;5117525;27;45455;-77
2022/03/29 02:27:08;;;;;;;;;40.25;34.25;;;;;16.07;38.55;100509.25;5100132;27;45375;-74
2022/03/29 02:29:33;;;;;;;;;37.75;32.50;;;;;15.93;39.05;100485.63;5118499;27;45369;-77
2022/03/29 02:31:58;;;;;;;;;41.25;35.00;;;;;16.00;39.34;100501.44;5118941;27;45282;-76
2022/03/29 02:34:24;;;;;;;;;37.00;33.00;;;;;15.95;38.76;100502.41;5117476;27;45350;-75
2022/03/29 02:36:50;;;;;;;;;37.25;31.25;;;;;15.91;38.64;100494.50;5118754;27;45291;-77
2022/03/29 02:39:15;;;;;;;;;35.00;31.00;;;;;15.85;39.13;100490.19;5118156;27;46174;-76
2022/03/29 02:41:41;;;;;;;;;30.25;28.00;;;;;15.78;39.11;100477.06;5100022;27;45317;-76
2022/03/29 02:44:06;;;;;;;;;37.50;33.25;;;;;15.81;38.84;100488.47;5118988;27;45423;-75
2022/03/29 02:46:33;;;;;;;;;48.50;36.25;;;;;15.78;38.59;100477.91;5117455;27;45374;-76
2022/03/29 02:48:59;;;;;;;;;46.75;38.00;;;;;15.72;38.09;100461.22;5117677;27;46549;-75
2022/03/29 02:51:24;;;;;;;;;36.75;32.00;;;;;15.79;38.04;100470.84;5118091;27;45278;-76
2022/03/29 02:53:50;;;;;;;;;35.50;32.25;;;;;15.77;38.27;100476.19;5118355;27;45153;-75
2022/03/29 02:56:15;;;;;;;;;35.50;30.75;;;;;15.79;37.88;100468.19;5107875;27;45207;-77
2022/03/29 02:58:40;;;;;;;;;43.50;35.00;;;;;15.75;38.10;100458.53;5089926;27;46285;-75
2022/03/29 03:01:06;;;;;;;;;40.50;33.50;;;;;15.79;37.44;100457.56;5110944;27;45258;-76
2022/03/29 03:03:31;;;;;;;;;34.25;32.75;;;;;15.71;37.44;100451.50;5097374;27;45224;-75
2022/03/29 03:05:58;;;;;;;;;31.00;27.75;;;;;15.72;37.40;100450.59;5098421;27;45536;-76
2022/03/29 03:08:23;;;;;;;;;33.50;30.25;;;;;15.79;36.79;100460.22;5097597;27;46552;-76
2022/03/29 03:10:49;;;;;;;;;31.00;29.00;;;;;15.71;36.92;100454.16;5098002;27;45542;-74
2022/03/29 03:13:15;;;;;;;;;38.00;34.00;;;;;15.74;36.65;100465.63;5100013;27;45383;-77
2022/03/29 03:15:41;;;;;;;;;32.25;26.75;;;;;15.78;36.55;100463.78;5098906;27;45300;-75
2022/03/29 03:18:06;;;;;;;;;28.25;26.50;;;;;15.78;36.20;100461.13;5096849;27;47219;-76
2022/03/29 03:20:33;;;;;;;;;28.00;23.00;;;;;15.58;36.47;100422.50;5098291;27;45484;-74
2022/03/29 03:22:58;;;;;;;;;35.25;30.25;;;;;15.74;36.24;100452.34;5097933;27;45274;-77
2022/03/29 03:25:25;;;;;;;;;24.75;24.75;;;;;15.75;36.15;100447.91;5078331;27;45461;-76
2022/03/29 03:27:51;;;;;;;;;31.75;26.75;;;;;15.56;36.20;100418.13;5097755;27;45918;-76
2022/03/29 03:30:17;;;;;;;;;28.75;25.75;;;;;15.70;35.74;100447.97;5104535;27;45211;-76
2022/03/29 03:32:42;;;;;;;;;28.75;25.25;;;;;15.68;36.01;100445.34;5083756;27;45464;-76
2022/03/29 03:35:09;;;;;;;;;25.50;25.50;;;;;15.67;36.02;100440.94;5097933;27;45268;-74
2022/03/29 03:37:35;;;;;;;;;23.50;23.50;;;;;15.64;36.19;100441.00;5097570;27;47204;-74
2022/03/29 03:40:03;;;;;;;;;27.75;23.00;;;;;15.64;36.43;100437.47;5079116;27;45279;-77
2022/03/29 03:42:28;;;;;;;;;29.75;26.50;;;;;15.63;36.54;100433.94;5079420;27;45165;-77
2022/03/29 03:44:54;;;;;;;;;23.00;22.00;;;;;15.59;36.05;100428.66;5097323;27;45617;-77
2022/03/29 03:47:19;;;;;;;;;31.75;27.25;;;;;15.57;36.64;100423.41;5098255;27;46959;-76
2022/03/29 03:49:45;;;;;;;;;31.00;27.00;;;;;15.53;36.49;100416.38;5097266;27;45230;-76
2022/03/29 03:52:10;;;;;;;;;26.00;23.25;;;;;15.57;36.77;100428.72;5116882;27;45574;-76
2022/03/29 03:54:36;;;;;;;;;28.00;23.50;;;;;15.57;37.04;100430.50;5117300;27;45442;-76
2022/03/29 03:57:04;;;;;;;;;25.75;23.50;;;;;15.54;37.17;100423.47;5114885;27;46751;-74
2022/03/29 03:59:29;;;;;;;;;30.50;27.75;;;;;15.45;37.18;100410.34;5117422;27;45504;-75
2022/03/29 04:01:54;;;;;;;;;23.75;23.75;;;;;15.47;37.43;100413.84;5117669;27;45550;-76
2022/03/29 04:04:20;;;;;;;;;33.25;28.50;;;;;15.47;37.57;100405.00;5117963;27;45599;-75
2022/03/29 04:06:45;;;;;;;;;23.50;23.00;;;;;15.49;37.89;100412.03;5117524;27;45520;-77
2022/03/29 04:09:11;;;;;;;;;28.75;22.00;;;;;15.47;37.49;100410.31;5116328;27;45392;-76
2022/03/29 04:11:36;;;;;;;;;30.25;26.75;;;;;15.42;37.45;100402.41;5117044;27;45427;-77
2022/03/29 04:14:01;;;;;;;;;24.50;23.25;;;;;15.42;37.58;100397.09;5117783;27;45398;-76
2022/03/29 04:16:27;;;;;;;;;25.50;20.25;;;;;15.47;37.69;100408.53;5120651;27;46183;-76
2022/03/29 04:18:53;;;;;;;;;27.25;25.50;;;;;15.42;37.98;100394.47;5119934;27;45536;-77
2022/03/29 04:21:18;;;;;;;;;28.50;25.75;;;;;15.40;38.18;100393.63;5121411;27;45229;-77
2022/03/29 04:23:43;;;;;;;;;28.25;25.75;;;;;15.40;38.58;100402.44;5119149;27;45423;-76
2022/03/29 04:26:09;;;;;;;;;27.00;23.00;;;;;15.38;38.29;100388.34;5120766;27;46412;-76
2022/03/29 04:28:35;;;;;;;;;16.50;12.25;;;;;15.40;38.59;100397.16;5119343;27;45330;-77
2022/03/29 04:31:00;;;;;;;;;25.25;24.25;;;;;15.41;38.39;100398.03;5120988;27;45254;-77
2022/03/29 04:33:26;;;;;;;;;31.25;27.50;;;;;15.42;38.55;100398.91;5101639;27;45464;-76
2022/03/29 04:35:52;;;;;;;;;31.25;25.75;;;;;15.40;39.14;100396.28;5120916;27;46176;-77
2022/03/29 04:38:17;;;;;;;;;29.50;24.75;;;;;15.36;38.71;100400.78;5119930;27;45417;-75
2022/03/29 04:40:43;;;;;;;;;28.75;24.25;;;;;15.33;38.89;100389.31;5120853;27;45311;-76
2022/03/29 04:43:08;;;;;;;;;28.75;25.50;;;;;15.34;39.16;100399.91;5119085;27;45550;-73
2022/03/29 04:45:34;;;;;;;;;21.00;20.75;;;;;15.27;39.14;100377.03;5120424;27;46003;-77
2022/03/29 04:47:59;;;;;;;;;30.00;27.25;;;;;15.35;39.46;100385.72;5120771;27;45355;-77
2022/03/29 04:50:25;;;;;;;;;30.75;24.50;;;;;15.27;39.52;100379.69;5119393;27;45264;-77
2022/03/29 04:52:51;;;;;;;;;22.50;20.75;;;;;15.26;39.39;100374.38;5121160;27;45295;-77
2022/03/29 04:55:17;;;;;;;;;35.25;26.75;;;;;15.17;39.12;100359.53;5104028;27;45438;-77
2022/03/29 04:57:45;;;;;;;;;30.50;24.75;;;;;15.24;39.02;100386.81;5099432;27;45356;-76
2022/03/29 05:00:13;;;;;;;;;19.25;15.00;;;;;15.24;39.40;100384.16;5109723;27;45243;-77
2022/03/29 05:02:39;;;;;;;;;21.25;18.25;;;;;15.22;39.15;100381.53;5119744;27;45316;-77
2022/03/29 05:05:06;;;;;;;;;28.50;28.50;;;;;15.27;39.39;100381.47;5115993;27;45321;-76
2022/03/29 05:07:31;;;;;;;;;31.00;25.00;;;;;15.28;39.12;100378.78;5118806;27;45319;-77
2022/03/29 05:09:57;;;;;;;;;22.75;21.25;;;;;15.28;39.12;100375.25;5117560;27;45288;-76
2022/03/29 05:12:23;;;;;;;;;28.50;24.50;;;;;15.30;38.88;100369.03;5078865;27;45367;-77
2022/03/29 05:14:49;;;;;;;;;27.00;26.25;;;;;15.22;39.02;100362.97;5080656;27;47226;-75
2022/03/29 05:17:14;;;;;;;;;28.50;22.50;;;;;15.25;39.06;100365.56;5116679;27;45198;-77
2022/03/29 05:19:40;;;;;;;;;29.25;25.25;;;;;15.23;39.17;100369.16;5118977;27;45594;-77
2022/03/29 05:22:05;;;;;;;;;25.25;24.25;;;;;15.25;39.20;100370.00;5124137;27;45143;-77
2022/03/29 05:24:30;;;;;;;;;30.75;29.00;;;;;15.25;38.71;100367.34;5116444;27;45293;-77
2022/03/29 05:26:56;;;;;;;;;34.00;27.50;;;;;15.17;38.70;100367.50;5110840;27;45442;-76
2022/03/29 05:29:22;;;;;;;;;28.75;23.25;;;;;15.22;38.59;100381.53;5115936;27;45273;-78
2022/03/29 05:31:48;;;;;;;;;27.50;25.25;;;;;15.32;38.84;100395.53;5101425;27;45523;-78
2022/03/29 05:34:13;;;;;;;;;26.75;25.75;;;;;15.20;38.61;100385.13;5094549;27;46043;-79
2022/03/29 05:36:44;;;;;;;;;30.75;26.00;;;;;15.06;38.61;100365.00;5098812;27;45243;-79
2022/03/29 05:39:10;;;;;;;;;29.50;24.25;;;;;15.16;38.91;100381.63;5099808;27;45285;-79
2022/03/29 05:41:35;;;;;;;;;30.75;24.50;;;;;15.22;39.17;100384.19;5100150;27;45193;-78
2022/03/29 05:44:00;;;;;;;;;32.00;26.00;;;;;15.21;38.80;100369.19;5099266;27;46203;-78
2022/03/29 05:49:10;;;;;;;;;25.25;21.75;;;;;15.26;38.74;100375.28;5099285;27;45222;-79
2022/03/29 05:51:35;;;;;;;;;33.50;30.75;;;;;15.31;38.64;100380.50;5096175;27;45466;-79
2022/03/29 05:54:01;;;;;;;;;30.50;25.25;;;;;15.33;38.73;100370.72;5097212;27;46011;-78
2022/03/29 05:56:27;;;;;;;;;41.00;25.25;;;;;15.32;38.57;100361.91;5098047;27;45172;-80
2022/03/29 05:58:53;;;;;;;;;32.00;26.75;;;;;15.34;39.18;100375.13;5098378;27;45464;-80
2022/03/29 06:01:19;;;;;;;;;24.25;22.50;;;;;15.37;38.71;100369.78;5098000;27;45339;-79
2022/03/29 06:03:45;;;;;;;;;31.25;28.50;;;;;15.22;38.74;100346.16;5095453;27;46091;-80
2022/03/29 06:06:10;;;;;;;;;32.25;29.00;;;;;15.32;38.91;100353.06;5097961;27;45399;-78
2022/03/29 06:08:36;;;;;;;;;26.00;24.75;;;;;15.38;38.93;100374.19;5093834;27;45401;-79
2022/03/29 06:11:04;;;;;;;;;32.25;28.25;;;;;15.38;39.04;100369.75;5097590;27;45455;-76
2022/03/29 06:13:30;;;;;;;;;31.00;28.75;;;;;15.36;39.15;100355.66;5096588;27;45722;-76
2022/03/29 06:15:55;;;;;;;;;28.75;26.75;;;;;15.47;38.33;100366.06;5096569;27;46657;-75
2022/03/29 06:18:21;;;;;;;;;32.25;27.00;;;;;15.51;38.20;100361.56;5098164;27;45287;-75
2022/03/29 06:20:51;;;;;;;;;32.75;27.00;;;;;15.55;38.49;100363.28;5098252;27;45288;-76
2022/03/29 06:23:17;;;;;;;;;26.25;22.50;;;;;15.56;38.34;100362.38;5096088;27;46002;-77
2022/03/29 06:25:43;;;;;;;;;26.00;24.25;;;;;15.46;38.24;100340.44;5096196;27;45304;-78
2022/03/29 06:28:10;;;;;;;;;27.00;23.25;;;;;15.54;37.82;100364.16;5091627;27;46455;-78
2022/03/29 06:30:36;;;;;;;;;35.25;31.75;;;;;15.65;38.51;100391.44;5098258;27;45451;-75
2022/03/29 06:33:02;;;;;;;;;26.25;21.50;;;;;15.58;38.25;100395.06;5094319;27;45471;-77
2022/03/29 06:35:28;;;;;;;;;26.50;26.50;;;;;15.57;37.74;100399.50;5093339;27;45899;-77
2022/03/29 06:37:55;;;;;;;;;30.00;26.00;;;;;15.65;37.73;100407.38;5096463;27;45392;-78
2022/03/29 06:40:22;;;;;;;;;33.00;30.00;;;;;15.53;38.10;100387.16;5098488;27;45465;-78
2022/03/29 06:42:49;;;;;;;;;38.75;32.75;;;;;15.66;38.23;100403.81;5095546;27;45550;-78
2022/03/29 06:45:21;;;;;;;;;29.50;27.25;;;;;15.70;37.89;100400.16;5096443;27;45431;-79
2022/03/29 06:47:47;;;;;;;;;32.25;25.75;;;;;15.70;37.91;100391.31;5097010;27;45373;-78
2022/03/29 06:50:13;;;;;;;;;32.75;30.50;;;;;15.69;37.67;100382.50;5102371;27;45445;-78
2022/03/29 06:52:41;;;;;;;;;31.00;26.25;;;;;15.73;37.54;100384.19;5117085;27;45254;-79
2022/03/29 06:55:13;;;;;;;;;28.00;24.50;;;;;15.87;37.87;100398.06;5118035;27;45332;-78
2022/03/29 06:57:39;;;;;;;;;34.50;29.00;;;;;15.49;37.85;100334.19;5118416;27;45437;-79
2022/03/29 07:00:09;;;;;;;;;32.75;30.00;;;;;15.99;37.72;100404.03;5119056;27;45155;-78
2022/03/29 07:02:35;;;;;;;;;29.00;25.25;;;;;16.04;37.15;100389.75;5116844;27;46560;-78
2022/03/29 07:05:00;;;;;;;;;31.00;28.75;;;;;15.94;37.31;100367.81;5118382;27;45350;-78
2022/03/29 07:07:26;;;;;;;;;36.00;27.75;;;;;16.12;37.64;100374.53;5118613;27;45369;-78
2022/03/29 07:12:53;;;;;;;;;30.00;27.00;;;;;16.27;37.35;100373.31;5117418;27;45796;-79
2022/03/29 07:15:19;;;;;;;;;36.25;31.50;;;;;16.38;36.78;100381.06;5116583;27;45476;-79
2022/03/29 07:17:45;;;;;;;;;34.25;31.50;;;;;16.45;37.03;100388.88;5118552;27;45403;-78
2022/03/29 07:20:12;;;;;;;;;30.00;27.75;;;;;16.50;36.94;100379.00;5116755;27;45441;-78
2022/03/29 07:22:38;;;;;;;;;32.75;28.00;;;;;16.58;36.42;100375.31;5115905;27;46062;-75
2022/03/29 07:25:04;;;;;;;;;30.50;27.25;;;;;16.68;36.18;100374.19;5117231;27;45212;-78
2022/03/29 07:27:30;;;;;;;;;32.75;30.50;;;;;16.64;36.73;100353.88;5108547;27;45169;-78
2022/03/29 07:29:57;;;;;;;;;28.25;24.50;;;;;16.71;36.36;100358.19;5114100;27;45502;-77
2022/03/29 07:32:22;;;;;;;;;29.00;26.75;;;;;16.76;36.05;100359.84;5114383;27;46964;-73
2022/03/29 07:34:47;;;;;;;;;31.25;29.25;;;;;16.79;36.50;100366.84;5116807;27;45304;-77
2022/03/29 07:37:13;;;;;;;;;33.00;29.50;;;;;16.83;36.65;100370.31;5117586;27;45500;-77
2022/03/29 07:39:41;;;;;;;;;27.50;25.75;;;;;16.71;36.43;100347.53;5117684;27;45389;-76
2022/03/29 07:42:07;;;;;;;;;34.50;29.75;;;;;16.87;36.16;100369.34;5117642;27;45439;-77
2022/03/29 07:44:33;;;;;;;;;29.50;28.00;;;;;16.77;36.51;100363.38;5117785;27;45269;-76
2022/03/29 07:46:58;;;;;;;;;30.50;30.00;;;;;16.76;36.73;100361.63;5117858;27;45188;-76
2022/03/29 07:49:24;;;;;;;;;32.00;30.25;;;;;16.81;36.59;100365.03;5117750;27;45239;-76
2022/03/29 07:51:49;;;;;;;;;27.25;26.00;;;;;16.82;36.82;100356.13;5095310;27;46455;-76
2022/03/29 07:54:15;;;;;;;;;32.50;30.75;;;;;16.83;37.39;100357.88;5100389;27;45261;-77
2022/03/29 07:56:40;;;;;;;;;31.75;28.50;;;;;16.89;36.99;100362.19;5099587;27;45269;-75
2022/03/29 07:59:06;;;;;;;;;35.75;32.50;;;;;16.92;37.20;100364.75;5096720;27;46043;-76
2022/03/29 08:01:31;;;;;;;;;38.75;32.25;;;;;16.86;37.20;100357.81;5101693;27;46771;-77
2022/03/29 08:03:56;;;;;;;;;30.75;28.00;;;;;16.62;37.80;100335.31;5094153;27;45516;-73
2022/03/29 08:06:22;;;;;;;;;37.50;32.25;;;;;16.55;37.90;100336.34;5097737;27;45615;-77
2022/03/29 08:08:48;;;;;;;;;40.50;33.00;;;;;16.67;37.95;100351.16;5100203;27;45602;-77
2022/03/29 08:11:14;;;;;;;;;36.75;29.00;;;;;16.79;38.11;100353.56;5099614;27;45404;-76
2022/03/29 08:13:39;;;;;;;;;40.50;34.00;;;;;16.88;38.23;100350.66;5099213;27;45346;-76
2022/03/29 08:16:05;;;;;;;;;38.75;34.50;;;;;16.94;37.88;100339.88;5100376;27;45423;-76
2022/03/29 08:18:31;;;;;;;;;36.25;33.25;;;;;17.03;38.15;100338.75;5100434;27;45333;-75
2022/03/29 08:20:57;;;;;;;;;31.75;29.75;;;;;17.10;37.90;100335.91;5099943;27;45302;-77
2022/03/29 08:23:23;;;;;;;;;39.25;32.75;;;;;17.17;37.56;100325.97;5100017;27;45368;-76
2022/03/29 08:25:49;;;;;;;;;29.50;28.75;;;;;17.42;37.36;100338.66;5099969;27;45346;-75
2022/03/29 08:28:15;;;;;;;;;27.75;26.25;;;;;17.59;37.07;100344.38;5100195;27;45528;-76
2022/03/29 08:30:42;;;;;;;;;38.75;34.50;;;;;17.75;36.72;100327.06;5099911;27;46920;-76
2022/03/29 08:33:08;;;;;;;;;42.00;35.00;;;;;17.97;36.68;100330.00;5099637;27;45249;-76
2022/03/29 08:35:37;;;;;;;;;33.00;31.00;;;;;18.15;35.66;100313.47;5099827;27;45402;-77
2022/03/29 08:38:03;;;;;;;;;32.50;30.00;;;;;18.56;35.25;100316.63;5100063;27;45342;-78
2022/03/29 08:40:28;;;;;;;;;36.00;32.50;;;;;18.95;34.67;100311.78;5098728;27;46351;-77
2022/03/29 08:42:58;;;;;;;;;35.50;30.50;;;;;19.48;34.18;100318.88;5099551;27;45363;-77
2022/03/29 08:45:30;;;;;;;;;29.75;29.75;;;;;19.93;33.04;100308.31;5099572;27;45337;-76
2022/03/29 08:47:59;;;;;;;;;29.75;26.50;;;;;20.36;32.72;100301.28;5099920;27;45574;-75
2022/03/29 08:50:27;;;;;;;;;38.25;33.25;;;;;20.80;32.02;100301.31;5087009;27;47074;-76
2022/03/29 08:52:53;;;;;;;;;38.00;29.50;;;;;21.44;30.88;100285.19;5120030;27;45303;-76
2022/03/29 08:55:19;;;;;;;;;37.00;31.25;;;;;22.89;29.49;100300.66;5120116;27;45240;-76
2022/03/29 08:57:49;;;;;;;;;40.25;31.25;;;;;24.75;26.89;100289.69;5120091;27;45209;-76
2022/03/29 09:00:16;;;;;;;;;36.75;31.75;;;;;26.37;24.66;100268.91;5118932;27;45479;-77
2022/03/29 09:02:42;;;;;;;;;38.00;32.67;;;;;27.62;23.07;100254.94;5118933;27;45563;-76
2022/03/29 09:05:12;;;;;;;;;38.00;33.33;;;;;28.63;21.97;100272.00;5120171;27;45276;-75
2022/03/29 09:07:50;;;;;;;;;31.33;31.00;;;;;29.08;21.83;100269.50;5120317;27;45190;-76
2022/03/29 09:10:16;;;;;;;;;34.00;30.67;;;;;28.40;22.01;100265.59;5119510;27;46041;-77
2022/03/29 09:12:42;;;;;;;;;32.00;30.33;;;;;27.79;22.54;100264.59;5119845;27;45473;-77
2022/03/29 09:15:09;;;;;;;;;32.33;28.67;;;;;27.31;23.09;100264.38;5119976;27;45530;-77
2022/03/29 09:17:36;;;;;;;;;35.67;31.67;;;;;26.56;23.81;100261.34;5120205;27;45255;-77
2022/03/29 09:20:11;;;;;;;;;29.33;29.33;;;;;25.71;25.23;100256.94;5119541;27;46091;-76
2022/03/29 09:22:53;;;;;;;;;40.67;34.67;;;;;25.02;26.25;100261.13;5119765;27;45249;-75
2022/03/29 09:25:37;;;;;;;;;36.00;29.00;;;;;24.55;26.82;100252.28;5118884;27;45545;-76
2022/03/29 09:28:12;;;;;;;;;33.67;31.33;;;;;24.44;26.97;100256.44;5120013;27;45454;-75
2022/03/29 09:30:42;;;;;;;;;40.00;32.67;;;;;24.54;26.95;100253.22;5119145;27;45450;-76
2022/03/29 09:33:12;;;;;;;;;33.00;31.00;;;;;24.41;26.88;100247.69;5119445;27;45352;-77
2022/03/29 09:36:03;;;;;;;;;33.67;30.33;;;;;24.40;26.87;100244.13;5119952;27;45504;-77
2022/03/29 09:38:41;;;;;;;;;48.67;36.00;;;;;24.25;26.53;100233.34;5124059;27;45589;-76
2022/03/29 09:41:28;;;;;;;;;36.67;32.33;;;;;24.24;26.41;100255.84;5114762;27;45665;-76
2022/03/29 09:44:09;;;;;;;;;44.33;37.00;;;;;23.98;26.63;100241.16;5119339;27;45395;-77
2022/03/29 09:47:01;;;;;;;;;34.00;33.67;;;;;24.15;26.81;100259.91;5118328;27;45400;-76
2022/03/29 09:49:28;;;;;;;;;29.33;27.00;;;;;24.58;26.03;100249.41;5119654;27;45206;-78
2022/03/29 09:52:21;;;;;;;;;41.33;35.00;;;;;25.31;25.41;100245.00;5117746;27;47604;-77
2022/03/29 09:55:16;;;;;;;;;43.67;35.00;;;;;26.10;24.65;100253.53;5117422;27;45324;-77
2022/03/29 09:57:48;;;;;;;;;39.33;34.33;;;;;26.60;23.74;100243.06;5118744;27;45326;-77
2022/03/29 10:00:19;;;;;;;;;41.67;35.00;;;;;27.63;22.70;100232.31;5119381;27;45200;-78
2022/03/29 10:02:46;;;;;;;;;34.33;31.33;;;;;28.21;21.99;100240.81;5119407;27;45436;-76
2022/03/29 10:05:15;;;;;;;;;40.67;33.33;;;;;28.27;21.76;100197.00;5119596;27;45443;-75
2022/03/29 10:07:50;;;;;;;;;37.67;30.67;;;;;28.72;21.41;100197.25;5119899;27;45620;-76
2022/03/29 10:10:16;;;;;;;;;36.67;33.00;;;;;29.26;20.80;100169.53;5099055;27;45419;-77
2022/03/29 10:12:42;;;;;;;;;37.00;28.33;;;;;29.83;20.62;100225.59;5097031;27;46160;-77
2022/03/29 10:15:08;;;;;;;;;37.67;32.33;;;;;30.35;20.16;100225.81;5099845;27;45462;-79
2022/03/29 10:17:36;;;;;;;;;40.33;35.00;;;;;31.05;19.45;100194.47;5108572;27;47021;-81
2022/03/29 10:20:06;;;;;;;;;34.67;30.67;;;;;31.49;19.24;100204.25;5107722;27;45395;-76
2022/03/29 10:22:32;;;;;;;;;50.00;38.33;;;;;31.68;18.71;100198.00;5110278;27;47205;-77
2022/03/29 10:24:58;;;;;;;;;40.00;32.67;;;;;31.79;18.82;100210.69;5098372;27;45196;-76
2022/03/29 10:27:23;;;;;;;;;46.67;34.67;;;;;31.89;18.33;100200.69;5105798;27;45322;-78
2022/03/29 10:29:49;;;;;;;;;35.00;32.33;;;;;31.90;18.88;100199.69;5119135;27;45310;-79
2022/03/29 10:32:27;;;;;;;;;38.67;35.00;;;;;31.76;18.54;100202.81;5119291;27;47301;-78
2022/03/29 10:35:06;;;;;;;;;53.33;43.33;;;;;32.21;17.91;100199.66;5120060;27;45387;-78
2022/03/29 10:37:52;;;;;;;;;43.00;35.33;;;;;32.75;17.36;100198.25;5120886;27;45293;-78
2022/03/29 10:40:37;;;;;;;;;51.00;42.00;;;;;31.92;18.60;100194.09;5122710;27;45413;-79
2022/03/29 10:43:26;;;;;;;;;40.00;36.67;;;;;30.95;18.96;100187.25;5126817;27;46058;-78
2022/03/29 10:45:51;;;;;;;;;44.00;32.50;;;;;30.08;19.54;100152.03;5112443;27;45332;-79
2022/03/29 10:48:18;;;;;;;;;34.67;32.33;;;;;29.52;20.02;100160.22;5112305;27;45112;-75
2022/03/29 16:37:14;;;;;;;;;35.50;26.50;;;;;15.13;59.21;99946.59;5074474;27;45665;-78
2022/03/29 16:39:40;;;;;;;;;25.25;21.25;;;;;15.18;59.37;99935.91;5053795;28;46804;-80
2022/03/29 16:42:05;;;;;;;;;32.50;27.00;;;;;15.49;59.42;99974.03;5056071;28;45867;-80
2022/03/29 16:44:31;;;;;;;;;26.25;23.75;;;;;15.44;59.12;99954.66;5058148;28;45191;-78
2022/03/29 16:46:56;;;;;;;;;28.75;25.25;;;;;15.03;58.89;99861.06;5058462;27;46059;-83
2022/03/29 16:49:22;;;;;;;;;35.00;25.50;;;;;15.70;58.64;99964.66;5061483;28;45472;-77
2022/03/29 16:51:50;;;;;;;;;25.50;23.00;;;;;15.46;58.47;99909.53;5059846;27;45397;-79
2022/03/29 16:54:16;;;;;;;;;25.50;20.25;;;;;15.67;58.87;99944.38;5051890;28;45406;-81
2022/03/29 16:56:42;;;;;;;;;23.75;21.50;;;;;15.67;59.21;99944.38;5047450;28;45772;-82
2022/03/29 16:59:08;;;;;;;;;25.75;24.25;;;;;15.53;58.81;99901.34;5054739;28;45516;-79
2022/03/29 17:01:38;;;;;;;;;28.50;27.75;;;;;15.92;59.57;99962.34;5043390;28;45474;-80
2022/03/29 17:04:03;;;;;;;;;27.75;26.50;;;;;15.68;59.19;99914.25;5050803;28;45477;-81
2022/03/29 17:06:30;;;;;;;;;21.00;20.25;;;;;15.95;58.54;99956.94;5059090;28;45349;-82
2022/03/29 17:08:59;;;;;;;;;20.75;20.75;;;;;16.00;58.57;99965.63;5055492;28;45331;-82